地図

経路データ

SID SEASON NUMBER BASIN SUBBASIN NAME ISO_TIME NATURE LAT LON WMO_WIND WMO_PRES WMO_AGENCY TRACK_TYPE DIST2LAND LANDFALL IFLAG USA_AGENCY USA_ATCF_ID USA_LAT USA_LON USA_RECORD USA_STATUS USA_WIND USA_PRES USA_SSHS USA_R34_NE USA_R34_SE USA_R34_SW USA_R34_NW USA_R50_NE USA_R50_SE USA_R50_SW USA_R50_NW USA_R64_NE USA_R64_SE USA_R64_SW USA_R64_NW USA_POCI USA_ROCI USA_RMW USA_EYE TOKYO_LAT TOKYO_LON TOKYO_GRADE TOKYO_WIND TOKYO_PRES TOKYO_R50_DIR TOKYO_R50_LONG TOKYO_R50_SHORT TOKYO_R30_DIR TOKYO_R30_LONG TOKYO_R30_SHORT TOKYO_LAND CMA_LAT CMA_LON CMA_CAT CMA_WIND CMA_PRES HKO_LAT HKO_LON HKO_CAT HKO_WIND HKO_PRES NEWDELHI_LAT NEWDELHI_LON NEWDELHI_GRADE NEWDELHI_WIND NEWDELHI_PRES NEWDELHI_CI NEWDELHI_DP NEWDELHI_POCI REUNION_LAT REUNION_LON REUNION_TYPE REUNION_WIND REUNION_PRES REUNION_TNUM REUNION_CI REUNION_RMW REUNION_R34_NE REUNION_R34_SE REUNION_R34_SW REUNION_R34_NW REUNION_R50_NE REUNION_R50_SE REUNION_R50_SW REUNION_R50_NW REUNION_R64_NE REUNION_R64_SE REUNION_R64_SW REUNION_R64_NW BOM_LAT BOM_LON BOM_TYPE BOM_WIND BOM_PRES BOM_TNUM BOM_CI BOM_RMW BOM_R34_NE BOM_R34_SE BOM_R34_SW BOM_R34_NW BOM_R50_NE BOM_R50_SE BOM_R50_SW BOM_R50_NW BOM_R64_NE BOM_R64_SE BOM_R64_SW BOM_R64_NW BOM_ROCI BOM_POCI BOM_EYE BOM_POS_METHOD BOM_PRES_METHOD NADI_LAT NADI_LON NADI_CAT NADI_WIND NADI_PRES WELLINGTON_LAT WELLINGTON_LON WELLINGTON_WIND WELLINGTON_PRES DS824_LAT DS824_LON DS824_STAGE DS824_WIND DS824_PRES TD9636_LAT TD9636_LON TD9636_STAGE TD9636_WIND TD9636_PRES TD9635_LAT TD9635_LON TD9635_WIND TD9635_PRES TD9635_ROCI NEUMANN_LAT NEUMANN_LON NEUMANN_CLASS NEUMANN_WIND NEUMANN_PRES MLC_LAT MLC_LON MLC_CLASS MLC_WIND MLC_PRES USA_GUST BOM_GUST BOM_GUST_PER REUNION_GUST REUNION_GUST_PER USA_SEAHGT USA_SEARAD_NE USA_SEARAD_SE USA_SEARAD_SW USA_SEARAD_NW STORM_SPEED STORM_DIR
1995233N16115 1995 49 WP MM LOIS 1995-08-21 06:00:00 NR 15.6000 114.800 main 526 525 O_____________ jtwc_wp WP131995 15.6000 114.800 10 -1 2 0
1995233N16115 1995 49 WP MM LOIS 1995-08-21 09:00:00 NR 15.7000 114.812 main 525 524 P_____________ WP131995 15.7000 114.812 10 -1 2 8
1995233N16115 1995 49 WP MM LOIS 1995-08-21 12:00:00 NR 15.8000 114.800 main 524 524 O_____________ jtwc_wp WP131995 15.8000 114.800 10 -1 2 343
1995233N16115 1995 49 WP MM LOIS 1995-08-21 15:00:00 NR 15.9000 114.750 main 524 524 P_____________ WP131995 15.9000 114.750 10 -1 2 333
1995233N16115 1995 49 WP MM LOIS 1995-08-21 18:00:00 NR 16.0000 114.700 main 534 534 O_____________ jtwc_wp WP131995 16.0000 114.700 10 -1 2 343
1995233N16115 1995 49 WP MM LOIS 1995-08-21 21:00:00 NR 16.1000 114.692 main 534 532 P_____________ WP131995 16.1000 114.692 10 -1 2 8
1995233N16115 1995 49 WP MM LOIS 1995-08-22 00:00:00 NR 16.2000 114.700 main 532 525 O_____________ jtwc_wp WP131995 16.2000 114.700 10 -1 2 8
1995233N16115 1995 49 WP MM LOIS 1995-08-22 03:00:00 NR 16.3075 114.700 main 525 519 P_____________ WP131995 16.3075 114.700 12 -1 2 8
1995233N16115 1995 49 WP MM LOIS 1995-08-22 06:00:00 NR 16.4000 114.700 main 519 514 O_____________ jtwc_wp WP131995 16.4000 114.700 15 -1 2 0
1995233N16115 1995 49 WP MM LOIS 1995-08-22 09:00:00 NR 16.4575 114.700 main 514 514 P_____________ WP131995 16.4575 114.700 15 -1 1 0
1995233N16115 1995 49 WP MM LOIS 1995-08-22 12:00:00 NR 16.5000 114.700 main 514 514 O_____________ jtwc_wp WP131995 16.5000 114.700 15 -1 1 0
1995233N16115 1995 49 WP MM LOIS 1995-08-22 15:00:00 NR 16.5500 114.700 main 508 508 P_____________ WP131995 16.5500 114.700 15 -1 1 0
1995233N16115 1995 49 WP MM LOIS 1995-08-22 18:00:00 NR 16.6000 114.700 main 508 508 O_____________ jtwc_wp WP131995 16.6000 114.700 15 -1 1 0
1995233N16115 1995 49 WP MM LOIS 1995-08-22 21:00:00 NR 16.6500 114.700 main 503 503 P_____________ WP131995 16.6500 114.700 17 -1 1 0
1995233N16115 1995 49 WP MM LOIS 1995-08-23 00:00:00 NR 16.7000 114.700 main 503 503 O_____________ jtwc_wp WP131995 16.7000 114.700 20 -1 1 0
1995233N16115 1995 49 WP MM LOIS 1995-08-23 03:00:00 NR 16.7500 114.693 main 497 497 P_____________ WP131995 16.7500 114.693 20 -1 1 0
1995233N16115 1995 49 WP MM LOIS 1995-08-23 06:00:00 NR 16.8000 114.700 main 497 492 O_____________ jtwc_wp WP131995 16.8000 114.700 20 -1 1 25
1995233N16115 1995 49 WP MM LOIS 1995-08-23 09:00:00 NR 16.8575 114.750 main 502 492 P_____________ WP131995 16.8575 114.750 20 -1 1 43
1995233N16115 1995 49 WP MM LOIS 1995-08-23 12:00:00 NR 16.9000 114.800 main 502 502 O_____________ jtwc_wp WP131995 16.9000 114.800 20 -1 1 43
1995233N16115 1995 49 WP MM LOIS 1995-08-23 15:00:00 NR 16.9075 114.800 main 502 502 P_____________ WP131995 16.9075 114.800 20 -1 0 0
1995233N16115 1995 49 WP MM LOIS 1995-08-23 18:00:00 NR 16.9000 114.800 main 502 502 O_____________ jtwc_wp WP131995 16.9000 114.800 20 -1 0 112
1995233N16115 1995 49 WP MM LOIS 1995-08-23 21:00:00 NR 16.8925 114.835 main 502 482 P_____________ WP131995 16.8925 114.835 20 -1 5 78
1995233N16115 1995 49 WP MM LOIS 1995-08-24 00:00:00 TS 17.0000 115.280 main 482 464 O_O___________ jtwc_wp WP131995 16.9000 114.900 20 -1 17.4000 116.800 1 29 1002 7 75
1995233N16115 1995 49 WP MM LOIS 1995-08-24 03:00:00 TS 17.0833 115.557 main 454 433 P_P___________ WP131995 16.9425 115.000 20 -1 17.3650 116.670 1 29 1001 5 73
1995233N16115 1995 49 WP MM LOIS 1995-08-24 06:00:00 TS 17.1500 115.800 1002 tokyo main 436 433 OOO___________ jtwc_wp WP131995 17.0000 115.100 20 -1 17.3000 116.500 2 1002 0 0 0 17.3000 116.500 1 29 1000 3 78
1995233N16115 1995 49 WP MM LOIS 1995-08-24 09:00:00 TS 17.1390 115.826 main 433 433 PPP___________ WP131995 17.0500 115.158 20 -1 17.2101 116.260 2 1002 0 0 17.1926 116.277 1 29 1000 1 207
1995233N16115 1995 49 WP MM LOIS 1995-08-24 12:00:00 TS 17.1000 115.773 1002 tokyo main 433 433 OOO___________ jtwc_wp WP131995 17.1000 115.200 20 -1 17.1000 116.100 2 1002 0 0 0 17.1000 116.100 1 29 1000 1 0
1995233N16115 1995 49 WP MM LOIS 1995-08-24 15:00:00 TS 17.0683 115.799 main 433 433 PPP___________ WP131995 17.1500 115.257 20 -1 16.9700 116.070 2 1002 0 0 17.0850 116.070 1 29 1000 1 119
1995233N16115 1995 49 WP MM LOIS 1995-08-24 18:00:00 TS 17.0667 115.833 1002 tokyo main 433 433 OOO___________ jtwc_wp WP131995 17.2000 115.300 20 -1 16.9000 116.100 2 1002 0 0 0 17.1000 116.100 1 29 1000 1 30
1995233N16115 1995 49 WP MM LOIS 1995-08-24 21:00:00 TS 17.1167 115.836 main 433 433 PPP___________ WP131995 17.2575 115.308 20 -1 16.9925 116.100 2 1002 0 0 17.1000 116.100 1 29 1000 1 0
1995233N16115 1995 49 WP MM LOIS 1995-08-25 00:00:00 TS 17.1667 115.833 1002 tokyo main 436 433 OOO___________ jtwc_wp WP131995 17.3000 115.300 20 -1 17.1000 116.100 2 1002 0 0 0 17.1000 116.100 1 29 1000 0 39
1995233N16115 1995 49 WP MM LOIS 1995-08-25 03:00:00 TS 17.1475 115.843 main 433 433 PPP___________ WP131995 17.3000 115.300 20 -1 17.0500 116.115 2 1002 0 0 17.0925 116.115 1 29 1000 0 147
1995233N16115 1995 49 WP MM LOIS 1995-08-25 06:00:00 TS 17.1333 115.833 1002 tokyo main 433 433 OOO___________ jtwc_wp WP131995 17.3000 115.300 20 -1 17.0000 116.100 2 1002 0 0 0 17.1000 116.100 1 29 1000 1 309
1995233N16115 1995 49 WP MM LOIS 1995-08-25 09:00:00 TS 17.1825 115.799 main 436 436 PPP___________ WP131995 17.3350 115.322 20 -1 17.0775 116.037 2 1001 0 0 17.1350 116.037 1 31 999 2 317
1995233N16115 1995 49 WP MM LOIS 1995-08-25 12:00:00 TS 17.2667 115.700 1000 tokyo main 450 450 OOO___________ jtwc_wp WP131995 17.4000 115.300 20 -1 17.2000 115.900 2 1000 0 0 0 17.2000 115.900 2 34 998 3 304
1995233N16115 1995 49 WP MM LOIS 1995-08-25 15:00:00 TS 17.3692 115.503 main 473 473 PPP___________ WP131995 17.5000 115.180 22 -1 17.3076 115.665 2 999 0 0 17.3001 115.665 2 34 998 5 296
1995233N16115 1995 49 WP MM LOIS 1995-08-25 18:00:00 TS 17.4667 115.267 998 tokyo main 497 491 OOO___________ jtwc_wp WP131995 17.6000 115.000 25 -1 17.4000 115.400 2 998 0 0 0 17.4000 115.400 2 34 998 4 292
1995233N16115 1995 49 WP MM LOIS 1995-08-25 21:00:00 TS 17.5291 115.079 main 491 467 PPP___________ WP131995 17.6725 114.808 27 -1 17.4574 115.215 2 997 0 0 17.4574 115.215 2 34 998 4 284
1995233N16115 1995 49 WP MM LOIS 1995-08-26 00:00:00 TS 17.5615 114.877 996 tokyo main 467 440 OOOO__________ jtwc_wp WP131995 17.7000 114.600 30 -1 17.5000 115.000 2 996 0 0 0 17.5000 115.000 2 34 998 17.5000 115.000 TD 30 998 5 277
1995233N16115 1995 49 WP MM LOIS 1995-08-26 03:00:00 TS 17.5843 114.594 main 440 413 PPPP__________ WP131995 17.6575 114.392 30 -1 17.5650 114.680 2 995 0 0 17.5725 114.680 2 36 996 17.5001 114.650 TD 30 998 6 272
1995233N16115 1995 49 WP MM LOIS 1995-08-26 06:00:00 TS 17.5800 114.273 35 994 tokyo main 413 387 OOOO__________ jtwc_wp WP131995 17.6000 114.200 30 -1 17.6000 114.300 3 35 994 0 9 150 150 0 17.6000 114.300 2 38 995 17.5000 114.300 TD 30 998 6 267
1995233N16115 1995 49 WP MM LOIS 1995-08-26 09:00:00 TS 17.5543 113.952 main 387 358 PPPP__________ WP131995 17.6149 114.073 32 -1 17.5800 113.893 3 37 992 0 9 165 165 17.5225 113.892 2 38 995 17.4999 113.950 TD 32 995 6 263
1995233N16115 1995 49 WP MM LOIS 1995-08-26 12:00:00 TS 17.5000 113.625 40 990 tokyo main 358 334 OOOO__________ jtwc_wp WP131995 17.6000 113.900 35 0 17.5000 113.500 3 40 990 0 9 180 180 0 17.4000 113.500 2 38 995 17.5000 113.600 TS 35 992 7 256
1995233N16115 1995 49 WP MM LOIS 1995-08-26 15:00:00 TS 17.3981 113.285 main 334 313 PPPP__________ WP131995 17.4501 113.565 35 0 17.3499 113.170 3 42 987 0 9 180 180 17.2924 113.170 2 41 992 17.5000 113.235 TS 37 991 7 252
1995233N16115 1995 49 WP MM LOIS 1995-08-26 18:00:00 TS 17.3000 112.975 45 985 tokyo main 313 295 OOOO__________ jtwc_wp WP131995 17.3000 113.200 35 0 17.2000 112.900 3 45 985 0 9 180 180 0 17.2000 112.900 2 44 990 17.5000 112.900 TS 40 990 5 254
1995233N16115 1995 49 WP MM LOIS 1995-08-26 21:00:00 TS 17.2467 112.746 main 293 277 PPPP__________ WP131995 17.2623 112.950 37 0 17.1049 112.700 3 45 985 0 9 180 180 17.1199 112.700 2 44 990 17.4999 112.635 TS 42 987 4 263
1995233N16115 1995 49 WP MM LOIS 1995-08-27 00:00:00 TS 17.2500 112.525 45 985 tokyo main 269 253 OOOO__________ jtwc_wp WP131995 17.3000 112.700 40 0 17.1000 112.500 3 45 985 0 9 180 180 0 17.1000 112.500 2 44 990 17.5000 112.400 TS 45 985 5 278
1995233N16115 1995 49 WP MM LOIS 1995-08-27 03:00:00 TS 17.3150 112.238 main 245 215 PPPP__________ WP131995 17.3850 112.365 47 0 17.2200 112.215 3 47 982 0 9 195 165 17.1625 112.215 2 46 987 17.4924 112.157 TS 47 982 6 287
1995233N16115 1995 49 WP MM LOIS 1995-08-27 06:00:00 TS 17.4250 111.925 50 980 tokyo main 215 184 OOOO__________ jtwc_wp WP131995 17.5000 112.000 55 0 17.4000 111.900 4 50 980 0 3 210 150 0 17.3000 111.900 3 48 985 17.5000 111.900 STS 50 980 6 290
1995233N16115 1995 49 WP MM LOIS 1995-08-27 09:00:00 TS 17.5406 111.605 main 184 146 PPPP__________ WP131995 17.5924 111.650 57 0 17.5500 111.600 4 50 980 0 3 225 165 17.5000 111.578 3 48 985 17.5200 111.592 STS 50 980 6 293
1995233N16115 1995 49 WP MM LOIS 1995-08-27 12:00:00 TS 17.6750 111.300 50 980 tokyo main 146 124 OOOO__________ jtwc_wp WP131995 17.7000 111.300 60 0 17.7000 111.300 4 50 980 0 3 240 180 0 17.7000 111.300 3 48 985 17.6000 111.300 STS 50 980 6 297
1995233N16115 1995 49 WP MM LOIS 1995-08-27 15:00:00 TS 17.8118 111.042 main 118 88 PPPP__________ WP131995 17.8425 110.943 60 0 17.8425 110.985 4 50 980 0 3 240 180 17.7849 111.142 3 48 985 17.7774 111.100 STS 52 977 6 302
1995233N16115 1995 49 WP MM LOIS 1995-08-27 18:00:00 TS 17.9750 110.800 50 980 tokyo main 88 59 OOOO__________ jtwc_wp WP131995 18.0000 110.600 60 0 18.0000 110.700 4 50 980 0 3 240 180 0 17.9000 111.000 3 48 985 18.0000 110.900 STS 55 975 6 310
1995233N16115 1995 49 WP MM LOIS 1995-08-27 21:00:00 TS 18.1986 110.556 main 59 23 PPPP__________ WP131995 18.1500 110.285 62 0 18.2148 110.515 4 50 980 0 3 220 190 18.2148 110.803 3 53 982 18.2150 110.623 STS 57 972 7 310
1995233N16115 1995 49 WP MM LOIS 1995-08-28 00:00:00 TS 18.4000 110.275 50 980 tokyo main 23 0 OOOO__________ jtwc_wp WP131995 18.3000 110.000 65 1 18.4000 110.300 4 50 980 0 9 200 200 0 18.5000 110.500 3 58 980 18.4000 110.300 STS 60 970 7 295
1995233N16115 1995 49 WP MM LOIS 1995-08-28 03:00:00 TS 18.4863 109.913 main 0 0 PPPP__________ WP131995 18.4649 109.750 65 1 18.4501 109.922 4 50 980 0 9 190 190 18.5152 110.022 3 58 980 18.5150 109.957 STS 57 972 7 282
1995233N16115 1995 49 WP MM LOIS 1995-08-28 06:00:00 TS 18.5500 109.525 50 980 tokyo main 0 0 OOOO__________ jtwc_wp WP131995 18.6000 109.500 65 1 18.5000 109.500 4 50 980 0 9 180 180 0 18.5000 109.500 3 58 980 18.6000 109.600 STS 55 975 7 286
1995233N16115 1995 49 WP MM LOIS 1995-08-28 09:00:00 TS 18.6874 109.166 main 0 0 PPPP__________ WP131995 18.6575 109.200 65 1 18.6999 109.143 4 50 980 0 9 170 170 18.6924 109.070 3 58 980 18.6999 109.250 STS 55 975 7 293
1995233N16115 1995 49 WP MM LOIS 1995-08-28 12:00:00 TS 18.8250 108.825 50 980 tokyo main 0 0 OOOO__________ jtwc_wp WP131995 18.7000 108.900 65 1 18.9000 108.800 4 50 980 0 9 160 160 0 18.9000 108.700 3 58 980 18.8000 108.900 STS 55 975 7 290
1995233N16115 1995 49 WP MM LOIS 1995-08-28 15:00:00 TS 18.9131 108.505 main 21 21 PPPP__________ WP131995 18.7924 108.650 65 1 18.9725 108.435 4 50 980 0 9 160 160 18.9799 108.385 3 58 980 18.9074 108.550 STS 55 975 6 284
1995233N16115 1995 49 WP MM LOIS 1995-08-28 18:00:00 TS 18.9750 108.200 50 980 tokyo main 52 52 OOOO__________ jtwc_wp WP131995 18.9000 108.400 65 1 19.0000 108.100 4 50 980 0 9 160 160 0 19.0000 108.100 3 58 980 19.0000 108.200 STS 55 975 6 281
1995233N16115 1995 49 WP MM LOIS 1995-08-28 21:00:00 TS 19.0268 107.898 main 80 80 PPPP__________ WP131995 18.9999 108.115 65 1 19.0499 107.835 4 50 980 0 9 150 150 19.0000 107.800 3 58 980 19.0575 107.842 STS 55 975 6 280
1995233N16115 1995 49 WP MM LOIS 1995-08-29 00:00:00 TS 19.0750 107.600 50 980 tokyo main 107 107 OOOO__________ jtwc_wp WP131995 19.1000 107.800 65 1 19.1000 107.600 4 50 980 0 9 140 140 0 19.0000 107.500 3 58 980 19.1000 107.500 STS 55 975 6 281
1995233N16115 1995 49 WP MM LOIS 1995-08-29 03:00:00 TS 19.1375 107.300 main 138 122 PPPP__________ WP131995 19.2150 107.458 65 1 19.1575 107.350 4 50 980 0 9 140 140 19.0275 107.200 3 58 980 19.1499 107.192 STS 55 975 6 282
1995233N16115 1995 49 WP MM LOIS 1995-08-29 06:00:00 TS 19.2000 107.000 50 980 tokyo main 122 94 OOOO__________ jtwc_wp WP131995 19.3000 107.100 65 1 19.2000 107.100 4 50 980 0 9 140 140 0 19.1000 106.900 3 58 980 19.2000 106.900 STS 55 975 6 283
1995233N16115 1995 49 WP MM LOIS 1995-08-29 09:00:00 TS 19.2667 106.724 main 94 62 PPPP__________ WP131995 19.3222 106.780 65 1 19.2224 106.865 4 47 982 0 9 130 130 19.2572 106.638 3 58 980 19.2649 106.615 STS 55 975 6 280
1995233N16115 1995 49 WP MM LOIS 1995-08-29 12:00:00 TS 19.3000 106.400 45 985 tokyo main 62 20 OOOO__________ jtwc_wp WP131995 19.3000 106.400 65 1 19.2000 106.600 3 45 985 0 9 120 120 0 19.4000 106.300 3 58 980 19.3000 106.300 STS 55 975 7 271
1995233N16115 1995 49 WP MM LOIS 1995-08-29 15:00:00 TS 19.2782 105.960 main 20 0 PPPP__________ WP131995 19.2798 105.903 65 1 19.1226 106.250 3 45 985 0 9 120 120 19.4452 105.773 3 53 982 19.2650 105.915 STS 52 977 9 262
1995233N16115 1995 49 WP MM LOIS 1995-08-29 18:00:00 TS 19.1867 105.493 45 985 tokyo main 0 0 OOOO__________ jtwc_wp WP131995 19.2000 105.300 65 1 19.0000 105.900 3 45 985 0 9 120 120 0 19.4000 105.200 3 48 985 19.2000 105.500 STS 50 980 9 255
1995233N16115 1995 49 WP MM LOIS 1995-08-29 21:00:00 TS 19.0452 105.064 main 0 0 PPPP__________ WP131995 19.0222 104.645 57 0 18.8349 105.627 3 42 988 0 9 105 105 19.2725 104.717 3 43 990 19.1650 105.093 STS 45 985 9 248
1995233N16115 1995 49 WP MM LOIS 1995-08-30 00:00:00 TS 18.8667 104.633 40 992 tokyo main 0 0 OOOO__________ jtwc_wp WP131995 18.8000 103.900 50 0 18.7000 105.400 3 40 992 0 9 90 90 0 19.1000 104.300 2 38 995 19.1000 104.700 TS 40 990 9 247
1995233N16115 1995 49 WP MM LOIS 1995-08-30 03:00:00 TS 18.6929 104.183 main 0 0 PP_P__________ WP131995 18.5847 103.087 45 0 18.6624 105.200 3 37 994 0 9 75 75 2 18.9701 104.340 TS 35 992 11 255
1995233N16115 1995 49 WP MM LOIS 1995-08-30 06:00:00 TS 18.5625 103.475 35 996 tokyo main 0 0 OO_O__________ jtwc_wp WP131995 18.4000 102.200 40 0 18.7000 105.000 3 35 996 0 9 60 60 0 18.8000 104.000 TD 30 994 17 262
1995233N16115 1995 49 WP MM LOIS 1995-08-30 09:00:00 TS 18.4427 102.406 main 0 0 PP____________ WP131995 18.2703 101.228 35 0 18.7876 104.763 3 997 0 9 TD 22 264
1995233N16115 1995 49 WP MM LOIS 1995-08-30 12:00:00 TS 18.3400 101.140 998 tokyo main 0 0 OO____________ jtwc_wp WP131995 18.2000 100.300 30 -1 18.9000 104.500 2 998 0 0 0 27 264
1995233N16115 1995 49 NI BB LOIS 1995-08-30 15:00:00 NR 18.1835 99.6227 main 0 0 P_____________ WP131995 18.1835 99.6227 25 -1 2 0 0 21 266
1995233N16115 1995 49 NI BB LOIS 1995-08-30 18:00:00 NR 18.2000 98.9000 main 0 0 O_____________ jtwc_wp WP131995 18.2000 98.9000 20 -1 16 271
1995233N16115 1995 49 NI BB LOIS 1995-08-30 21:00:00 NR 18.2073 97.8924 main 0 0 P_____________ WP131995 18.2073 97.8924 20 -1 21 270
1995233N16115 1995 49 NI BB LOIS 1995-08-31 00:00:00 NR 18.2000 96.7000 main 0 O_____________ jtwc_wp WP131995 18.2000 96.7000 20 -1 23 270

デジタル台風データ・検索

IBTrACS Databaseについて

本データベースは、米国NOAAが公開する1842年以降の世界の熱帯低気圧のベストトラックデータアーカイブInternational Best Track Archive for Climate Stewardship (IBTrACS)を、ウェブで閲覧しやすい形式に変換したものです。

最終更新日:2021-12-03